sensor_id;sensor_type;location;lat;lon;timestamp;pressure;altitude;pressure_sealevel;temperature;humidity
74975;BME280;64061;50.836;19.138;2022-12-18T00:01:02;99891.72;;;19.58;45.58
74975;BME280;64061;50.836;19.138;2022-12-18T00:04:21;99905.41;;;19.58;45.81
74975;BME280;64061;50.836;19.138;2022-12-18T00:07:25;99906.75;;;19.55;45.79
74975;BME280;64061;50.836;19.138;2022-12-18T00:10:29;99910.03;;;19.57;46.79
74975;BME280;64061;50.836;19.138;2022-12-18T00:13:34;99915.03;;;19.61;48.26
74975;BME280;64061;50.836;19.138;2022-12-18T00:16:38;99923.47;;;19.59;49.43
74975;BME280;64061;50.836;19.138;2022-12-18T00:19:42;99922.66;;;19.58;50.27
74975;BME280;64061;50.836;19.138;2022-12-18T00:22:45;99927.28;;;19.58;50.55
74975;BME280;64061;50.836;19.138;2022-12-18T00:25:49;99924.56;;;19.58;50.93
74975;BME280;64061;50.836;19.138;2022-12-18T00:28:54;99931.94;;;19.57;50.75
74975;BME280;64061;50.836;19.138;2022-12-18T00:31:58;99927.81;;;19.55;50.68
74975;BME280;64061;50.836;19.138;2022-12-18T00:35:02;99931.63;;;19.54;50.70
74975;BME280;64061;50.836;19.138;2022-12-18T00:38:07;99927.22;;;19.53;50.84
74975;BME280;64061;50.836;19.138;2022-12-18T00:41:12;99935.44;;;19.53;50.43
74975;BME280;64061;50.836;19.138;2022-12-18T00:44:40;99939.50;;;19.50;50.51
74975;BME280;64061;50.836;19.138;2022-12-18T00:47:43;99947.97;;;19.49;50.32
74975;BME280;64061;50.836;19.138;2022-12-18T00:50:47;99953.44;;;19.49;50.12
74975;BME280;64061;50.836;19.138;2022-12-18T00:53:51;99962.69;;;19.48;49.87
74975;BME280;64061;50.836;19.138;2022-12-18T00:56:55;99956.63;;;19.46;49.81
74975;BME280;64061;50.836;19.138;2022-12-18T00:59:59;99961.03;;;19.47;49.78
74975;BME280;64061;50.836;19.138;2022-12-18T01:03:04;99970.06;;;19.47;49.50
74975;BME280;64061;50.836;19.138;2022-12-18T01:06:10;99973.63;;;19.48;49.29
74975;BME280;64061;50.836;19.138;2022-12-18T01:09:15;99982.69;;;19.48;49.11
74975;BME280;64061;50.836;19.138;2022-12-18T01:12:18;99980.56;;;19.50;48.70
74975;BME280;64061;50.836;19.138;2022-12-18T01:15:26;99989.09;;;19.54;48.99
74975;BME280;64061;50.836;19.138;2022-12-18T01:18:30;99993.50;;;19.55;48.56
74975;BME280;64061;50.836;19.138;2022-12-18T01:21:34;100005.03;;;19.57;48.31
74975;BME280;64061;50.836;19.138;2022-12-18T01:24:38;100004.75;;;19.58;48.32
74975;BME280;64061;50.836;19.138;2022-12-18T01:27:43;100011.06;;;19.59;48.17
74975;BME280;64061;50.836;19.138;2022-12-18T01:30:47;100008.09;;;19.61;48.27
74975;BME280;64061;50.836;19.138;2022-12-18T01:33:52;100014.38;;;19.61;48.25
74975;BME280;64061;50.836;19.138;2022-12-18T01:36:56;100008.91;;;19.61;47.65
74975;BME280;64061;50.836;19.138;2022-12-18T01:40:00;100017.13;;;19.61;48.07
74975;BME280;64061;50.836;19.138;2022-12-18T01:43:04;100014.38;;;19.61;48.08
74975;BME280;64061;50.836;19.138;2022-12-18T01:46:09;100015.81;;;19.64;47.91
74975;BME280;64061;50.836;19.138;2022-12-18T01:49:12;100019.38;;;19.64;47.97
74975;BME280;64061;50.836;19.138;2022-12-18T01:52:18;100018.06;;;19.67;48.20
74975;BME280;64061;50.836;19.138;2022-12-18T01:55:25;100017.47;;;19.65;47.86
74975;BME280;64061;50.836;19.138;2022-12-18T01:58:37;100022.09;;;19.64;47.72
74975;BME280;64061;50.836;19.138;2022-12-18T02:01:45;100032.22;;;19.64;47.69
74975;BME280;64061;50.836;19.138;2022-12-18T02:04:50;100039.59;;;19.63;47.73
74975;BME280;64061;50.836;19.138;2022-12-18T02:08:03;100046.25;;;19.67;47.78
74975;BME280;64061;50.836;19.138;2022-12-18T02:11:20;100049.47;;;19.64;47.56
74975;BME280;64061;50.836;19.138;2022-12-18T02:14:34;100049.72;;;19.63;47.58
74975;BME280;64061;50.836;19.138;2022-12-18T02:17:48;100047.25;;;19.61;47.65
74975;BME280;64061;50.836;19.138;2022-12-18T02:21:02;100050.22;;;19.60;47.73
74975;BME280;64061;50.836;19.138;2022-12-18T02:24:22;100061.41;;;19.58;47.80
74975;BME280;64061;50.836;19.138;2022-12-18T02:27:33;100060.84;;;19.56;47.66
74975;BME280;64061;50.836;19.138;2022-12-18T02:30:44;100067.41;;;19.55;47.71
74975;BME280;64061;50.836;19.138;2022-12-18T02:33:52;100069.31;;;19.54;47.86
74975;BME280;64061;50.836;19.138;2022-12-18T02:37:02;100067.41;;;19.55;47.77
74975;BME280;64061;50.836;19.138;2022-12-18T02:40:12;100081.56;;;19.52;47.80
74975;BME280;64061;50.836;19.138;2022-12-18T02:43:21;100082.41;;;19.52;47.89
74975;BME280;64061;50.836;19.138;2022-12-18T02:46:30;100068.97;;;19.51;47.79
74975;BME280;64061;50.836;19.138;2022-12-18T02:49:51;100077.19;;;19.51;47.73
74975;BME280;64061;50.836;19.138;2022-12-18T02:53:10;100080.63;;;19.46;48.00
74975;BME280;64061;50.836;19.138;2022-12-18T02:56:27;100083.34;;;19.46;47.82
74975;BME280;64061;50.836;19.138;2022-12-18T02:59:41;100084.44;;;19.45;47.88
74975;BME280;64061;50.836;19.138;2022-12-18T03:02:59;100097.28;;;19.45;47.77
74975;BME280;64061;50.836;19.138;2022-12-18T03:06:10;100094.53;;;19.45;47.85
74975;BME280;64061;50.836;19.138;2022-12-18T03:09:28;100090.16;;;19.44;47.63
74975;BME280;64061;50.836;19.138;2022-12-18T03:12:37;100093.16;;;19.42;47.95
74975;BME280;64061;50.836;19.138;2022-12-18T03:15:49;100104.34;;;19.41;47.69
74975;BME280;64061;50.836;19.138;2022-12-18T03:18:59;100116.38;;;19.40;47.72
74975;BME280;64061;50.836;19.138;2022-12-18T03:22:07;100116.84;;;19.37;47.84
74975;BME280;64061;50.836;19.138;2022-12-18T03:25:25;100110.53;;;19.36;47.71
74975;BME280;64061;50.836;19.138;2022-12-18T03:28:36;100116.84;;;19.37;47.46
74975;BME280;64061;50.836;19.138;2022-12-18T03:31:48;100128.03;;;19.35;47.67
74975;BME280;64061;50.836;19.138;2022-12-18T03:34:58;100129.34;;;19.33;47.62
74975;BME280;64061;50.836;19.138;2022-12-18T03:38:10;100134.25;;;19.31;47.56
74975;BME280;64061;50.836;19.138;2022-12-18T03:41:26;100137.56;;;19.33;47.46
74975;BME280;64061;50.836;19.138;2022-12-18T03:44:58;100130.94;;;19.29;47.75
74975;BME280;64061;50.836;19.138;2022-12-18T03:48:17;100141.88;;;19.29;47.52
74975;BME280;64061;50.836;19.138;2022-12-18T03:51:26;100143.53;;;19.30;47.63
74975;BME280;64061;50.836;19.138;2022-12-18T03:54:39;100141.88;;;19.29;47.52
74975;BME280;64061;50.836;19.138;2022-12-18T03:57:49;100148.41;;;19.28;47.48
74975;BME280;64061;50.836;19.138;2022-12-18T04:00:58;100152.81;;;19.29;47.49
74975;BME280;64061;50.836;19.138;2022-12-18T04:04:08;100146.75;;;19.27;47.15
74975;BME280;64061;50.836;19.138;2022-12-18T04:07:16;100165.06;;;19.26;47.56
74975;BME280;64061;50.836;19.138;2022-12-18T04:10:21;100166.97;;;19.26;47.37
74975;BME280;64061;50.836;19.138;2022-12-18T04:13:28;100164.25;;;19.26;47.33
74975;BME280;64061;50.836;19.138;2022-12-18T04:16:36;100166.38;;;19.23;47.25
74975;BME280;64061;50.836;19.138;2022-12-18T04:19:46;100179.81;;;19.25;47.23
74975;BME280;64061;50.836;19.138;2022-12-18T04:22:50;100176.25;;;19.25;47.73
74975;BME280;64061;50.836;19.138;2022-12-18T04:25:55;100169.13;;;19.23;47.39
74975;BME280;64061;50.836;19.138;2022-12-18T04:29:13;100175.66;;;19.22;47.53
74975;BME280;64061;50.836;19.138;2022-12-18T04:32:18;100182.78;;;19.23;47.17
74975;BME280;64061;50.836;19.138;2022-12-18T04:35:24;100190.78;;;19.25;47.16
74975;BME280;64061;50.836;19.138;2022-12-18T04:38:28;100191.59;;;19.26;47.10
74975;BME280;64061;50.836;19.138;2022-12-18T04:41:38;100191.34;;;19.27;47.01
74975;BME280;64061;50.836;19.138;2022-12-18T04:44:43;100194.69;;;19.29;46.95
74975;BME280;64061;50.836;19.138;2022-12-18T04:47:46;100201.56;;;19.32;46.86
74975;BME280;64061;50.836;19.138;2022-12-18T04:50:52;100202.75;;;19.36;46.42
74975;BME280;64061;50.836;19.138;2022-12-18T04:53:55;100194.53;;;19.36;46.90
74975;BME280;64061;50.836;19.138;2022-12-18T04:57:00;100206.56;;;19.35;46.85
74975;BME280;64061;50.836;19.138;2022-12-18T05:00:04;100206.06;;;19.38;46.64
74975;BME280;64061;50.836;19.138;2022-12-18T05:03:09;100214.28;;;19.38;46.55
74975;BME280;64061;50.836;19.138;2022-12-18T05:06:14;100211.91;;;19.41;46.57
74975;BME280;64061;50.836;19.138;2022-12-18T05:09:18;100208.09;;;19.42;46.39
74975;BME280;64061;50.836;19.138;2022-12-18T05:12:21;100211.66;;;19.43;46.43
74975;BME280;64061;50.836;19.138;2022-12-18T05:15:29;100216.63;;;19.46;46.33
74975;BME280;64061;50.836;19.138;2022-12-18T05:18:34;100214.72;;;19.46;46.50
74975;BME280;64061;50.836;19.138;2022-12-18T05:21:39;100223.53;;;19.48;46.17
74975;BME280;64061;50.836;19.138;2022-12-18T05:24:42;100234.72;;;19.47;46.30
74975;BME280;64061;50.836;19.138;2022-12-18T05:27:46;100227.56;;;19.46;46.26
74975;BME280;64061;50.836;19.138;2022-12-18T05:30:51;100237.69;;;19.45;46.25
74975;BME280;64061;50.836;19.138;2022-12-18T05:33:57;100237.44;;;19.47;46.26
74975;BME280;64061;50.836;19.138;2022-12-18T05:37:02;100241.84;;;19.48;46.30
74975;BME280;64061;50.836;19.138;2022-12-18T05:40:07;100248.38;;;19.47;46.25
74975;BME280;64061;50.836;19.138;2022-12-18T05:43:11;100254.94;;;19.46;46.22
74975;BME280;64061;50.836;19.138;2022-12-18T05:46:22;100249.69;;;19.44;46.28
74975;BME280;64061;50.836;19.138;2022-12-18T05:49:26;100262.31;;;19.45;46.29
74975;BME280;64061;50.836;19.138;2022-12-18T05:52:31;100260.66;;;19.44;46.13
74975;BME280;64061;50.836;19.138;2022-12-18T05:55:36;100270.19;;;19.42;46.13
74975;BME280;64061;50.836;19.138;2022-12-18T05:58:41;100267.94;;;19.39;46.23
74975;BME280;64061;50.836;19.138;2022-12-18T06:01:46;100282.69;;;19.38;46.41
74975;BME280;64061;50.836;19.138;2022-12-18T06:04:50;100281.84;;;19.37;46.02
74975;BME280;64061;50.836;19.138;2022-12-18T06:07:55;100282.69;;;19.38;46.08
74975;BME280;64061;50.836;19.138;2022-12-18T06:10:58;100293.03;;;19.36;46.10
74975;BME280;64061;50.836;19.138;2022-12-18T06:14:03;100296.63;;;19.36;46.14
74975;BME280;64061;50.836;19.138;2022-12-18T06:17:08;100298.16;;;19.32;46.05
74975;BME280;64061;50.836;19.138;2022-12-18T06:20:12;100310.16;;;19.31;45.81
74975;BME280;64061;50.836;19.138;2022-12-18T06:23:17;100310.16;;;19.31;46.11
74975;BME280;64061;50.836;19.138;2022-12-18T06:26:21;100314.00;;;19.30;45.90
74975;BME280;64061;50.836;19.138;2022-12-18T06:29:29;100314.38;;;19.10;46.44
74975;BME280;64061;50.836;19.138;2022-12-18T06:32:33;100313.41;;;18.93;46.64
74975;BME280;64061;50.836;19.138;2022-12-18T06:35:37;100318.66;;;18.83;46.86
74975;BME280;64061;50.836;19.138;2022-12-18T06:38:43;100330.53;;;18.77;46.99
74975;BME280;64061;50.836;19.138;2022-12-18T06:41:47;100329.81;;;18.70;46.77
74975;BME280;64061;50.836;19.138;2022-12-18T06:44:50;100335.72;;;18.67;46.97
74975;BME280;64061;50.836;19.138;2022-12-18T06:47:54;100349.91;;;18.64;47.22
74975;BME280;64061;50.836;19.138;2022-12-18T06:50:58;100361.41;;;18.66;47.01
74975;BME280;64061;50.836;19.138;2022-12-18T06:54:04;100366.63;;;18.67;46.88
74975;BME280;64061;50.836;19.138;2022-12-18T06:57:07;100358.66;;;18.66;46.87
74975;BME280;64061;50.836;19.138;2022-12-18T07:00:12;100374.84;;;18.67;46.89
74975;BME280;64061;50.836;19.138;2022-12-18T07:03:16;100369.59;;;18.66;46.72
74975;BME280;64061;50.836;19.138;2022-12-18T07:06:21;100370.19;;;18.68;47.08
74975;BME280;64061;50.836;19.138;2022-12-18T07:09:29;100375.66;;;18.68;46.76
74975;BME280;64061;50.836;19.138;2022-12-18T07:12:32;100376.72;;;18.67;46.61
74975;BME280;64061;50.836;19.138;2022-12-18T07:15:36;100379.00;;;18.70;46.33
74975;BME280;64061;50.836;19.138;2022-12-18T07:18:40;100393.28;;;18.72;46.33
74975;BME280;64061;50.836;19.138;2022-12-18T07:21:43;100386.50;;;18.74;46.07
74975;BME280;64061;50.836;19.138;2022-12-18T07:24:51;100396.50;;;18.80;45.91
74975;BME280;64061;50.836;19.138;2022-12-18T07:27:55;100401.72;;;18.82;45.92
74975;BME280;64061;50.836;19.138;2022-12-18T07:31:02;100409.63;;;18.90;45.61
74975;BME280;64061;50.836;19.138;2022-12-18T07:34:10;100408.06;;;18.94;45.45
74975;BME280;64061;50.836;19.138;2022-12-18T07:37:14;100416.03;;;18.96;45.36
74975;BME280;64061;50.836;19.138;2022-12-18T07:40:19;100423.53;;;19.00;45.34
74975;BME280;64061;50.836;19.138;2022-12-18T07:43:23;100418.91;;;19.01;45.08
74975;BME280;64061;50.836;19.138;2022-12-18T07:46:26;100420.91;;;19.05;45.06
74975;BME280;64061;50.836;19.138;2022-12-18T07:49:30;100419.38;;;19.09;44.84
74975;BME280;64061;50.836;19.138;2022-12-18T07:52:33;100417.00;;;19.13;44.87
74975;BME280;64061;50.836;19.138;2022-12-18T07:55:38;100417.94;;;19.18;44.78
74975;BME280;64061;50.836;19.138;2022-12-18T07:59:03;100424.84;;;19.21;44.79
74975;BME280;64061;50.836;19.138;2022-12-18T08:02:06;100423.94;;;19.27;44.64
74975;BME280;64061;50.836;19.138;2022-12-18T08:05:10;100429.25;;;19.34;44.38
74975;BME280;64061;50.836;19.138;2022-12-18T08:08:15;100429.63;;;19.37;44.42
74975;BME280;64061;50.836;19.138;2022-12-18T08:11:20;100429.53;;;19.44;44.44
74975;BME280;64061;50.836;19.138;2022-12-18T08:14:25;100424.06;;;19.44;44.16
74975;BME280;64061;50.836;19.138;2022-12-18T08:17:28;100430.69;;;19.48;44.02
74975;BME280;64061;50.836;19.138;2022-12-18T08:20:32;100432.16;;;19.50;44.03
74975;BME280;64061;50.836;19.138;2022-12-18T08:23:37;100439.06;;;19.53;43.87
74975;BME280;64061;50.836;19.138;2022-12-18T08:26:45;100437.75;;;19.55;44.29
74975;BME280;64061;50.836;19.138;2022-12-18T08:30:10;100438.09;;;19.59;44.17
74975;BME280;64061;50.836;19.138;2022-12-18T08:33:14;100440.59;;;19.61;44.22
74975;BME280;64061;50.836;19.138;2022-12-18T08:36:18;100445.84;;;19.62;44.23
74975;BME280;64061;50.836;19.138;2022-12-18T08:39:22;100451.31;;;19.62;44.48
74975;BME280;64061;50.836;19.138;2022-12-18T08:42:27;100455.25;;;19.66;44.52
74975;BME280;64061;50.836;19.138;2022-12-18T08:45:49;100466.06;;;19.61;44.91
74975;BME280;64061;50.836;19.138;2022-12-18T08:48:53;100463.09;;;19.63;44.96
74975;BME280;64061;50.836;19.138;2022-12-18T08:51:58;100464.41;;;19.60;45.05
74975;BME280;64061;50.836;19.138;2022-12-18T08:55:01;100469.66;;;19.62;45.11
74975;BME280;64061;50.836;19.138;2022-12-18T08:58:06;100470.47;;;19.62;45.28
74975;BME280;64061;50.836;19.138;2022-12-18T09:01:11;100474.88;;;19.63;45.55
74975;BME280;64061;50.836;19.138;2022-12-18T09:04:16;100480.38;;;19.63;45.63
74975;BME280;64061;50.836;19.138;2022-12-18T09:07:20;100491.91;;;19.65;45.92
74975;BME280;64061;50.836;19.138;2022-12-18T09:10:23;100499.28;;;19.65;46.23
74975;BME280;64061;50.836;19.138;2022-12-18T09:13:28;100498.22;;;19.66;46.41
74975;BME280;64061;50.836;19.138;2022-12-18T09:16:32;100492.38;;;19.62;46.82
74975;BME280;64061;50.836;19.138;2022-12-18T09:19:36;100496.66;;;19.58;46.91
74975;BME280;64061;50.836;19.138;2022-12-18T09:22:40;100491.19;;;19.58;47.96
74975;BME280;64061;50.836;19.138;2022-12-18T09:25:44;100491.44;;;19.56;47.98
74975;BME280;64061;50.836;19.138;2022-12-18T09:28:50;100493.34;;;19.56;48.25
74975;BME280;64061;50.836;19.138;2022-12-18T09:31:54;100495.47;;;19.54;48.37
74975;BME280;64061;50.836;19.138;2022-12-18T09:35:01;100504.75;;;19.53;48.49
74975;BME280;64061;50.836;19.138;2022-12-18T09:38:04;100502.03;;;19.53;49.26
74975;BME280;64061;50.836;19.138;2022-12-18T09:41:20;100504.28;;;19.56;49.79
74975;BME280;64061;50.836;19.138;2022-12-18T09:44:42;100495.94;;;19.51;50.39
74975;BME280;64061;50.836;19.138;2022-12-18T09:47:52;100501.44;;;19.51;50.79
74975;BME280;64061;50.836;19.138;2022-12-18T09:51:02;100503.09;;;19.52;50.71
74975;BME280;64061;50.836;19.138;2022-12-18T09:54:18;100494.66;;;19.53;50.73
74975;BME280;64061;50.836;19.138;2022-12-18T09:57:29;100508.94;;;19.55;50.46
74975;BME280;64061;50.836;19.138;2022-12-18T10:00:38;100497.16;;;19.55;50.25
74975;BME280;64061;50.836;19.138;2022-12-18T10:03:44;100501.78;;;19.54;50.07
74975;BME280;64061;50.836;19.138;2022-12-18T10:06:53;100508.69;;;19.57;49.99
74975;BME280;64061;50.836;19.138;2022-12-18T10:10:19;100498.31;;;19.59;49.85
74975;BME280;64061;50.836;19.138;2022-12-18T10:13:33;100499.16;;;19.60;49.87
74975;BME280;64061;50.836;19.138;2022-12-18T10:16:56;100489.03;;;19.60;49.95
74975;BME280;64061;50.836;19.138;2022-12-18T10:20:13;100486.91;;;19.62;50.02
74975;BME280;64061;50.836;19.138;2022-12-18T10:23:26;100479.75;;;19.61;49.93
74975;BME280;64061;50.836;19.138;2022-12-18T10:26:36;100481.91;;;19.59;50.22
74975;BME280;64061;50.836;19.138;2022-12-18T10:29:41;100489.88;;;19.61;50.00
74975;BME280;64061;50.836;19.138;2022-12-18T10:32:48;100482.50;;;19.61;50.04
74975;BME280;64061;50.836;19.138;2022-12-18T10:35:53;100475.00;;;19.68;49.71
74975;BME280;64061;50.836;19.138;2022-12-18T10:39:14;100481.91;;;19.82;49.23
74975;BME280;64061;50.836;19.138;2022-12-18T10:42:19;100475.00;;;19.80;49.35
74975;BME280;64061;50.836;19.138;2022-12-18T10:45:23;100480.09;;;19.88;49.32
74975;BME280;64061;50.836;19.138;2022-12-18T10:48:30;100494.63;;;20.00;48.88
74975;BME280;64061;50.836;19.138;2022-12-18T10:51:36;100461.88;;;19.93;48.87
74975;BME280;64061;50.836;19.138;2022-12-18T10:54:46;100463.66;;;20.00;48.46
74975;BME280;64061;50.836;19.138;2022-12-18T10:57:52;100461.50;;;20.02;48.26
74975;BME280;64061;50.836;19.138;2022-12-18T11:01:07;100461.16;;;20.10;47.93
74975;BME280;64061;50.836;19.138;2022-12-18T11:04:18;100459.94;;;20.17;47.54
74975;BME280;64061;50.836;19.138;2022-12-18T11:07:24;100473.16;;;20.20;47.51
74975;BME280;64061;50.836;19.138;2022-12-18T11:10:30;100472.31;;;20.20;47.29
74975;BME280;64061;50.836;19.138;2022-12-18T11:13:35;100477.31;;;20.11;47.61
74975;BME280;64061;50.836;19.138;2022-12-18T11:16:44;100478.06;;;20.07;48.24
74975;BME280;64061;50.836;19.138;2022-12-18T11:20:21;100477.25;;;19.95;48.04
74975;BME280;64061;50.836;19.138;2022-12-18T11:23:32;100475.47;;;19.88;48.18
74975;BME280;64061;50.836;19.138;2022-12-18T11:26:37;100472.25;;;19.91;47.99
74975;BME280;64061;50.836;19.138;2022-12-18T11:29:42;100479.28;;;19.87;47.95
74975;BME280;64061;50.836;19.138;2022-12-18T11:32:48;100470.38;;;19.80;48.17
74975;BME280;64061;50.836;19.138;2022-12-18T11:36:00;100475.72;;;19.75;48.38
74975;BME280;64061;50.836;19.138;2022-12-18T11:39:13;100477.53;;;19.70;48.67
74975;BME280;64061;50.836;19.138;2022-12-18T11:42:27;100479.88;;;19.66;48.96
74975;BME280;64061;50.836;19.138;2022-12-18T11:45:42;100476.56;;;19.64;49.55
74975;BME280;64061;50.836;19.138;2022-12-18T11:48:58;100475.97;;;19.62;49.74
74975;BME280;64061;50.836;19.138;2022-12-18T11:52:13;100472.63;;;19.60;50.20
74975;BME280;64061;50.836;19.138;2022-12-18T11:55:28;100475.34;;;19.60;50.29
74975;BME280;64061;50.836;19.138;2022-12-18T11:58:46;100475.59;;;19.58;50.52
74975;BME280;64061;50.836;19.138;2022-12-18T12:01:58;100467.97;;;19.61;50.33
74975;BME280;64061;50.836;19.138;2022-12-18T12:05:27;100485.84;;;19.63;50.35
74975;BME280;64061;50.836;19.138;2022-12-18T12:08:53;100491.91;;;19.65;50.50
74975;BME280;64061;50.836;19.138;2022-12-18T12:12:20;100490.59;;;19.68;50.75
74975;BME280;64061;50.836;19.138;2022-12-18T12:16:01;100499.66;;;19.68;50.75
74975;BME280;64061;50.836;19.138;2022-12-18T12:19:22;100496.41;;;19.71;51.02
74975;BME280;64061;50.836;19.138;2022-12-18T12:22:42;100500.25;;;19.70;50.79
74975;BME280;64061;50.836;19.138;2022-12-18T12:25:57;100497.25;;;19.72;50.21
74975;BME280;64061;50.836;19.138;2022-12-18T12:29:18;100502.50;;;19.73;50.33
74975;BME280;64061;50.836;19.138;2022-12-18T12:32:53;100497.25;;;19.72;49.90
74975;BME280;64061;50.836;19.138;2022-12-18T12:36:15;100504.53;;;19.66;50.03
74975;BME280;64061;50.836;19.138;2022-12-18T12:39:28;100510.47;;;19.63;49.85
74975;BME280;64061;50.836;19.138;2022-12-18T12:42:40;100503.31;;;19.62;49.57
74975;BME280;64061;50.836;19.138;2022-12-18T12:46:05;100509.28;;;19.59;49.53
74975;BME280;64061;50.836;19.138;2022-12-18T12:49:15;100502.97;;;19.58;49.43
74975;BME280;64061;50.836;19.138;2022-12-18T12:52:28;100503.78;;;19.59;49.37
74975;BME280;64061;50.836;19.138;2022-12-18T12:55:36;100511.91;;;19.54;48.78
74975;BME280;64061;50.836;19.138;2022-12-18T12:58:48;100509.78;;;19.56;49.15
74975;BME280;64061;50.836;19.138;2022-12-18T13:02:02;100508.56;;;19.52;49.03
74975;BME280;64061;50.836;19.138;2022-12-18T13:05:24;100512.97;;;19.53;48.91
74975;BME280;64061;50.836;19.138;2022-12-18T13:08:52;100522.63;;;19.55;48.80
74975;BME280;64061;50.836;19.138;2022-12-18T13:12:02;100527.13;;;19.50;48.95
74975;BME280;64061;50.836;19.138;2022-12-18T13:15:30;100531.53;;;19.51;48.99
74975;BME280;64061;50.836;19.138;2022-12-18T13:18:48;100529.41;;;19.65;48.92
74975;BME280;64061;50.836;19.138;2022-12-18T13:21:55;100533.44;;;19.74;48.89
74975;BME280;64061;50.836;19.138;2022-12-18T13:24:59;100528.25;;;19.84;48.73
74975;BME280;64061;50.836;19.138;2022-12-18T13:28:06;100535.59;;;19.95;48.52
74975;BME280;64061;50.836;19.138;2022-12-18T13:31:13;100540.34;;;20.00;48.26
74975;BME280;64061;50.836;19.138;2022-12-18T13:34:37;100535.47;;;20.02;48.16
74975;BME280;64061;50.836;19.138;2022-12-18T13:37:43;100542.50;;;20.09;47.79
74975;BME280;64061;50.836;19.138;2022-12-18T13:40:57;100539.25;;;20.12;47.73
74975;BME280;64061;50.836;19.138;2022-12-18T13:44:11;100542.13;;;20.17;47.28
74975;BME280;64061;50.836;19.138;2022-12-18T13:47:30;100539.78;;;20.09;47.25
74975;BME280;64061;50.836;19.138;2022-12-18T13:50:36;100548.47;;;19.95;47.83
74975;BME280;64061;50.836;19.138;2022-12-18T13:53:45;100547.97;;;19.86;47.95
74975;BME280;64061;50.836;19.138;2022-12-18T13:56:52;100550.47;;;19.76;48.10
74975;BME280;64061;50.836;19.138;2022-12-18T13:59:56;100541.56;;;19.69;48.16
74975;BME280;64061;50.836;19.138;2022-12-18T14:03:15;100541.66;;;19.62;47.78
74975;BME280;64061;50.836;19.138;2022-12-18T14:06:24;100548.56;;;19.53;48.21
74975;BME280;64061;50.836;19.138;2022-12-18T14:09:29;100552.81;;;19.49;48.06
74975;BME280;64061;50.836;19.138;2022-12-18T14:12:40;100543.88;;;19.42;48.39
74975;BME280;64061;50.836;19.138;2022-12-18T14:16:06;100549.19;;;19.37;48.22
74975;BME280;64061;50.836;19.138;2022-12-18T14:19:15;100541.47;;;19.34;48.01
74975;BME280;64061;50.836;19.138;2022-12-18T14:22:23;100541.13;;;19.30;48.12
74975;BME280;64061;50.836;19.138;2022-12-18T14:25:31;100540.13;;;19.25;48.02
74975;BME280;64061;50.836;19.138;2022-12-18T14:28:43;100539.31;;;19.24;48.02
74975;BME280;64061;50.836;19.138;2022-12-18T14:32:06;100542.50;;;19.21;47.92
74975;BME280;64061;50.836;19.138;2022-12-18T14:35:20;100540.94;;;19.13;48.05
74975;BME280;64061;50.836;19.138;2022-12-18T14:38:27;100529.41;;;19.11;47.90
74975;BME280;64061;50.836;19.138;2022-12-18T14:41:31;100535.56;;;19.07;48.03
74975;BME280;64061;50.836;19.138;2022-12-18T14:44:35;100540.06;;;19.01;48.11
74975;BME280;64061;50.836;19.138;2022-12-18T14:47:59;100540.16;;;18.95;48.25
74975;BME280;64061;50.836;19.138;2022-12-18T14:51:06;100543.97;;;18.94;48.26
74975;BME280;64061;50.836;19.138;2022-12-18T14:54:23;100559.41;;;18.88;48.17
74975;BME280;64061;50.836;19.138;2022-12-18T14:57:32;100556.66;;;18.88;48.10
74975;BME280;64061;50.836;19.138;2022-12-18T15:00:42;100564.72;;;18.83;48.27
74975;BME280;64061;50.836;19.138;2022-12-18T15:03:46;100558.34;;;18.89;47.88
74975;BME280;64061;50.836;19.138;2022-12-18T15:07:02;100560.56;;;19.10;47.35
74975;BME280;64061;50.836;19.138;2022-12-18T15:10:11;100566.75;;;19.17;47.38
74975;BME280;64061;50.836;19.138;2022-12-18T15:13:22;100563.69;;;19.26;47.10
74975;BME280;64061;50.836;19.138;2022-12-18T15:16:26;100581.78;;;19.27;46.71
74975;BME280;64061;50.836;19.138;2022-12-18T15:19:36;100579.66;;;19.29;46.81
74975;BME280;64061;50.836;19.138;2022-12-18T15:22:47;100585.13;;;19.29;46.62
74975;BME280;64061;50.836;19.138;2022-12-18T15:25:56;100595.00;;;19.30;46.44
74975;BME280;64061;50.836;19.138;2022-12-18T15:29:01;100590.59;;;19.29;46.71
74975;BME280;64061;50.836;19.138;2022-12-18T15:32:10;100587.38;;;19.32;46.63
74975;BME280;64061;50.836;19.138;2022-12-18T15:35:24;100577.41;;;19.37;46.74
74975;BME280;64061;50.836;19.138;2022-12-18T15:38:31;100586.81;;;19.41;46.54
74975;BME280;64061;50.836;19.138;2022-12-18T15:41:35;100595.38;;;19.45;46.78
74975;BME280;64061;50.836;19.138;2022-12-18T15:44:39;100604.69;;;19.44;46.85
74975;BME280;64061;50.836;19.138;2022-12-18T15:47:44;100599.22;;;19.44;46.81
74975;BME280;64061;50.836;19.138;2022-12-18T15:50:53;100607.56;;;19.49;46.72
74975;BME280;64061;50.836;19.138;2022-12-18T15:54:50;100609.31;;;19.43;46.71
74975;BME280;64061;50.836;19.138;2022-12-18T15:58:11;100600.75;;;19.40;46.95
74975;BME280;64061;50.836;19.138;2022-12-18T16:01:16;100598.59;;;19.42;47.00
74975;BME280;64061;50.836;19.138;2022-12-18T16:04:23;100601.34;;;19.42;47.24
74975;BME280;64061;50.836;19.138;2022-12-18T16:07:27;100598.13;;;19.45;47.45
74975;BME280;64061;50.836;19.138;2022-12-18T16:10:34;100611.34;;;19.48;47.61
74975;BME280;64061;50.836;19.138;2022-12-18T16:13:38;100617.28;;;19.45;48.01
74975;BME280;64061;50.836;19.138;2022-12-18T16:16:43;100621.09;;;19.44;47.83